sensor_id;sensor_type;location;lat;lon;timestamp;pressure;altitude;pressure_sealevel;temperature;humidity
73316;BME280;61545;53.726;-0.444;2022-11-14T00:02:15;1011.3;;;9.8;100.0
73316;BME280;61545;53.726;-0.444;2022-11-14T00:07:15;1011.2;;;9.9;100.0
73316;BME280;61545;53.726;-0.444;2022-11-14T00:12:15;1011.2;;;9.7;100.0
73316;BME280;61545;53.726;-0.444;2022-11-14T00:17:15;1011.1;;;9.7;100.0
73316;BME280;61545;53.726;-0.444;2022-11-14T00:22:15;1011.1;;;9.7;100.0
73316;BME280;61545;53.726;-0.444;2022-11-14T00:27:15;1011.1;;;9.6;100.0
73316;BME280;61545;53.726;-0.444;2022-11-14T00:32:15;1011.0;;;9.6;100.0
73316;BME280;61545;53.726;-0.444;2022-11-14T00:37:15;1011.0;;;9.7;100.0
73316;BME280;61545;53.726;-0.444;2022-11-14T00:42:15;1010.9;;;9.6;100.0
73316;BME280;61545;53.726;-0.444;2022-11-14T00:47:15;1010.9;;;9.6;100.0
73316;BME280;61545;53.726;-0.444;2022-11-14T00:52:15;1010.9;;;9.5;100.0
73316;BME280;61545;53.726;-0.444;2022-11-14T00:57:15;1010.8;;;9.5;100.0
73316;BME280;61545;53.726;-0.444;2022-11-14T01:02:15;1010.7;;;9.6;100.0
73316;BME280;61545;53.726;-0.444;2022-11-14T01:07:15;1010.6;;;9.5;100.0
73316;BME280;61545;53.726;-0.444;2022-11-14T01:12:15;1010.5;;;9.5;100.0
73316;BME280;61545;53.726;-0.444;2022-11-14T01:17:15;1010.4;;;9.5;100.0
73316;BME280;61545;53.726;-0.444;2022-11-14T01:22:15;1010.3;;;9.5;100.0
73316;BME280;61545;53.726;-0.444;2022-11-14T01:27:15;1010.3;;;9.6;100.0
73316;BME280;61545;53.726;-0.444;2022-11-14T01:32:15;1010.3;;;9.7;100.0
73316;BME280;61545;53.726;-0.444;2022-11-14T01:37:15;1010.3;;;9.7;100.0
73316;BME280;61545;53.726;-0.444;2022-11-14T01:42:15;1010.3;;;9.5;100.0
73316;BME280;61545;53.726;-0.444;2022-11-14T01:47:17;1010.2;;;9.5;100.0
73316;BME280;61545;53.726;-0.444;2022-11-14T01:52:16;1010.1;;;9.7;100.0
73316;BME280;61545;53.726;-0.444;2022-11-14T01:57:17;1010.0;;;9.5;100.0
73316;BME280;61545;53.726;-0.444;2022-11-14T02:02:16;1010.0;;;9.5;100.0
73316;BME280;61545;53.726;-0.444;2022-11-14T02:07:15;1010.0;;;9.3;100.0
73316;BME280;61545;53.726;-0.444;2022-11-14T02:12:16;1010.0;;;9.1;100.0
73316;BME280;61545;53.726;-0.444;2022-11-14T02:17:16;1010.0;;;9.3;100.0
73316;BME280;61545;53.726;-0.444;2022-11-14T02:22:15;1009.8;;;9.2;100.0
73316;BME280;61545;53.726;-0.444;2022-11-14T02:27:15;1009.8;;;9.3;100.0
73316;BME280;61545;53.726;-0.444;2022-11-14T02:32:15;1009.8;;;9.2;100.0
73316;BME280;61545;53.726;-0.444;2022-11-14T02:37:15;1009.6;;;9.1;100.0
73316;BME280;61545;53.726;-0.444;2022-11-14T02:42:15;1009.6;;;9.1;100.0
73316;BME280;61545;53.726;-0.444;2022-11-14T02:47:15;1009.4;;;9.1;100.0
73316;BME280;61545;53.726;-0.444;2022-11-14T02:52:15;1009.3;;;9.2;100.0
73316;BME280;61545;53.726;-0.444;2022-11-14T02:57:15;1009.3;;;9.0;100.0
73316;BME280;61545;53.726;-0.444;2022-11-14T03:02:15;1009.4;;;9.1;100.0
73316;BME280;61545;53.726;-0.444;2022-11-14T03:07:15;1009.4;;;9.2;100.0
73316;BME280;61545;53.726;-0.444;2022-11-14T03:12:15;1009.4;;;9.3;100.0
73316;BME280;61545;53.726;-0.444;2022-11-14T03:17:15;1009.2;;;9.2;100.0
73316;BME280;61545;53.726;-0.444;2022-11-14T03:22:15;1009.3;;;9.2;100.0
73316;BME280;61545;53.726;-0.444;2022-11-14T03:27:15;1009.0;;;9.4;100.0
73316;BME280;61545;53.726;-0.444;2022-11-14T03:32:15;1009.0;;;9.2;100.0
73316;BME280;61545;53.726;-0.444;2022-11-14T03:37:15;1008.9;;;9.2;100.0
73316;BME280;61545;53.726;-0.444;2022-11-14T03:42:15;1008.9;;;9.2;100.0
73316;BME280;61545;53.726;-0.444;2022-11-14T03:47:15;1008.9;;;9.3;100.0
73316;BME280;61545;53.726;-0.444;2022-11-14T03:52:15;1008.8;;;9.1;100.0
73316;BME280;61545;53.726;-0.444;2022-11-14T03:57:15;1008.9;;;9.0;100.0
73316;BME280;61545;53.726;-0.444;2022-11-14T04:02:15;1008.9;;;9.0;100.0
73316;BME280;61545;53.726;-0.444;2022-11-14T04:07:15;1008.9;;;9.0;100.0
73316;BME280;61545;53.726;-0.444;2022-11-14T04:12:15;1008.9;;;8.9;100.0
73316;BME280;61545;53.726;-0.444;2022-11-14T04:17:15;1008.8;;;9.1;100.0
73316;BME280;61545;53.726;-0.444;2022-11-14T04:22:15;1008.7;;;9.1;100.0
73316;BME280;61545;53.726;-0.444;2022-11-14T04:27:15;1008.8;;;8.9;100.0
73316;BME280;61545;53.726;-0.444;2022-11-14T04:32:15;1008.8;;;9.1;100.0
73316;BME280;61545;53.726;-0.444;2022-11-14T04:37:15;1008.7;;;9.2;100.0
73316;BME280;61545;53.726;-0.444;2022-11-14T04:42:15;1008.6;;;9.2;100.0
73316;BME280;61545;53.726;-0.444;2022-11-14T04:47:15;1008.6;;;9.0;100.0
73316;BME280;61545;53.726;-0.444;2022-11-14T04:52:15;1008.6;;;9.0;100.0
73316;BME280;61545;53.726;-0.444;2022-11-14T04:57:15;1008.6;;;8.9;100.0
73316;BME280;61545;53.726;-0.444;2022-11-14T05:02:15;1008.6;;;9.2;100.0
73316;BME280;61545;53.726;-0.444;2022-11-14T05:07:15;1008.4;;;9.0;100.0
73316;BME280;61545;53.726;-0.444;2022-11-14T05:12:15;1008.4;;;9.1;100.0
73316;BME280;61545;53.726;-0.444;2022-11-14T05:17:15;1008.5;;;9.0;100.0
73316;BME280;61545;53.726;-0.444;2022-11-14T05:22:15;1008.4;;;9.0;100.0
73316;BME280;61545;53.726;-0.444;2022-11-14T05:27:15;1008.3;;;9.0;100.0
73316;BME280;61545;53.726;-0.444;2022-11-14T05:32:15;1008.1;;;8.6;100.0
73316;BME280;61545;53.726;-0.444;2022-11-14T05:37:15;1008.0;;;8.5;100.0
73316;BME280;61545;53.726;-0.444;2022-11-14T05:42:15;1008.0;;;8.5;100.0
73316;BME280;61545;53.726;-0.444;2022-11-14T05:47:15;1007.9;;;8.4;100.0
73316;BME280;61545;53.726;-0.444;2022-11-14T05:52:16;1008.0;;;8.5;100.0
73316;BME280;61545;53.726;-0.444;2022-11-14T05:57:15;1007.8;;;8.4;100.0
73316;BME280;61545;53.726;-0.444;2022-11-14T06:02:15;1007.7;;;8.4;100.0
73316;BME280;61545;53.726;-0.444;2022-11-14T06:07:15;1007.8;;;8.4;100.0
73316;BME280;61545;53.726;-0.444;2022-11-14T06:12:15;1007.9;;;8.4;100.0
73316;BME280;61545;53.726;-0.444;2022-11-14T06:17:15;1007.8;;;8.5;100.0
73316;BME280;61545;53.726;-0.444;2022-11-14T06:22:15;1007.8;;;8.5;100.0
73316;BME280;61545;53.726;-0.444;2022-11-14T06:27:15;1007.7;;;8.5;100.0
73316;BME280;61545;53.726;-0.444;2022-11-14T06:32:15;1007.6;;;8.7;100.0
73316;BME280;61545;53.726;-0.444;2022-11-14T06:37:15;1007.6;;;8.6;100.0
73316;BME280;61545;53.726;-0.444;2022-11-14T06:42:15;1007.7;;;8.7;100.0
73316;BME280;61545;53.726;-0.444;2022-11-14T06:47:15;1007.8;;;8.7;100.0
73316;BME280;61545;53.726;-0.444;2022-11-14T06:52:15;1007.8;;;8.7;100.0
73316;BME280;61545;53.726;-0.444;2022-11-14T06:57:15;1007.9;;;8.8;100.0
73316;BME280;61545;53.726;-0.444;2022-11-14T07:02:15;1008.0;;;8.9;100.0
73316;BME280;61545;53.726;-0.444;2022-11-14T07:07:15;1008.0;;;8.9;100.0
73316;BME280;61545;53.726;-0.444;2022-11-14T07:12:15;1007.9;;;8.9;100.0
73316;BME280;61545;53.726;-0.444;2022-11-14T07:17:15;1007.9;;;8.9;100.0
73316;BME280;61545;53.726;-0.444;2022-11-14T07:22:15;1007.9;;;9.0;100.0
73316;BME280;61545;53.726;-0.444;2022-11-14T07:27:15;1007.9;;;9.1;100.0
73316;BME280;61545;53.726;-0.444;2022-11-14T07:32:15;1007.9;;;8.9;100.0
73316;BME280;61545;53.726;-0.444;2022-11-14T07:37:15;1007.9;;;8.9;100.0
73316;BME280;61545;53.726;-0.444;2022-11-14T07:42:15;1007.9;;;8.9;100.0
73316;BME280;61545;53.726;-0.444;2022-11-14T07:47:15;1007.7;;;9.0;100.0
73316;BME280;61545;53.726;-0.444;2022-11-14T07:52:15;1007.7;;;8.9;100.0
73316;BME280;61545;53.726;-0.444;2022-11-14T07:57:15;1007.6;;;8.8;100.0
73316;BME280;61545;53.726;-0.444;2022-11-14T08:02:15;1007.5;;;8.7;100.0
73316;BME280;61545;53.726;-0.444;2022-11-14T08:07:15;1007.6;;;8.9;100.0
73316;BME280;61545;53.726;-0.444;2022-11-14T08:12:15;1007.6;;;8.9;100.0
73316;BME280;61545;53.726;-0.444;2022-11-14T08:17:15;1007.5;;;8.8;100.0
73316;BME280;61545;53.726;-0.444;2022-11-14T08:22:15;1007.5;;;8.9;100.0
73316;BME280;61545;53.726;-0.444;2022-11-14T08:27:15;1007.5;;;8.9;100.0
73316;BME280;61545;53.726;-0.444;2022-11-14T08:32:15;1007.5;;;8.9;100.0
73316;BME280;61545;53.726;-0.444;2022-11-14T08:37:15;1007.6;;;8.9;100.0
73316;BME280;61545;53.726;-0.444;2022-11-14T08:42:15;1007.4;;;8.7;100.0
73316;BME280;61545;53.726;-0.444;2022-11-14T08:47:15;1007.4;;;8.9;100.0
73316;BME280;61545;53.726;-0.444;2022-11-14T08:52:15;1007.4;;;8.8;100.0
73316;BME280;61545;53.726;-0.444;2022-11-14T08:57:15;1007.3;;;8.8;100.0
73316;BME280;61545;53.726;-0.444;2022-11-14T09:02:15;1007.3;;;8.9;100.0
73316;BME280;61545;53.726;-0.444;2022-11-14T09:07:15;1007.1;;;8.9;100.0
73316;BME280;61545;53.726;-0.444;2022-11-14T09:12:15;1007.0;;;8.7;100.0
73316;BME280;61545;53.726;-0.444;2022-11-14T09:17:15;1006.9;;;8.6;100.0
73316;BME280;61545;53.726;-0.444;2022-11-14T09:22:15;1006.9;;;8.8;100.0
73316;BME280;61545;53.726;-0.444;2022-11-14T09:27:15;1006.9;;;8.8;100.0
73316;BME280;61545;53.726;-0.444;2022-11-14T09:32:15;1006.8;;;8.6;100.0
73316;BME280;61545;53.726;-0.444;2022-11-14T09:37:15;1006.8;;;8.6;100.0
73316;BME280;61545;53.726;-0.444;2022-11-14T09:42:23;1006.7;;;8.7;100.0
73316;BME280;61545;53.726;-0.444;2022-11-14T09:47:16;1006.7;;;8.4;100.0
73316;BME280;61545;53.726;-0.444;2022-11-14T09:52:25;1006.6;;;8.7;100.0
73316;BME280;61545;53.726;-0.444;2022-11-14T09:57:16;1006.7;;;8.7;100.0
73316;BME280;61545;53.726;-0.444;2022-11-14T10:02:24;1006.8;;;8.7;100.0
73316;BME280;61545;53.726;-0.444;2022-11-14T10:07:20;1006.9;;;8.9;100.0
73316;BME280;61545;53.726;-0.444;2022-11-14T10:12:17;1007.0;;;8.9;100.0
73316;BME280;61545;53.726;-0.444;2022-11-14T10:17:23;1006.9;;;8.9;100.0
73316;BME280;61545;53.726;-0.444;2022-11-14T10:22:21;1006.9;;;8.8;100.0
73316;BME280;61545;53.726;-0.444;2022-11-14T10:27:17;1006.8;;;9.0;100.0
73316;BME280;61545;53.726;-0.444;2022-11-14T10:32:20;1006.6;;;8.9;100.0
73316;BME280;61545;53.726;-0.444;2022-11-14T10:37:17;1006.6;;;8.8;100.0
73316;BME280;61545;53.726;-0.444;2022-11-14T10:42:17;1006.6;;;8.8;100.0
73316;BME280;61545;53.726;-0.444;2022-11-14T10:47:16;1006.5;;;9.0;100.0
73316;BME280;61545;53.726;-0.444;2022-11-14T10:52:17;1006.5;;;8.9;100.0
73316;BME280;61545;53.726;-0.444;2022-11-14T10:57:16;1006.4;;;9.2;100.0
73316;BME280;61545;53.726;-0.444;2022-11-14T11:02:15;1006.3;;;9.0;100.0
73316;BME280;61545;53.726;-0.444;2022-11-14T11:07:19;1006.2;;;8.8;100.0
73316;BME280;61545;53.726;-0.444;2022-11-14T11:12:16;1006.2;;;8.7;100.0
73316;BME280;61545;53.726;-0.444;2022-11-14T11:17:18;1006.2;;;8.8;100.0
73316;BME280;61545;53.726;-0.444;2022-11-14T11:22:35;1006.2;;;8.9;100.0
73316;BME280;61545;53.726;-0.444;2022-11-14T11:27:23;1006.2;;;9.0;100.0
73316;BME280;61545;53.726;-0.444;2022-11-14T11:32:22;1006.1;;;9.2;100.0
73316;BME280;61545;53.726;-0.444;2022-11-14T11:37:17;1006.0;;;9.1;100.0
73316;BME280;61545;53.726;-0.444;2022-11-14T11:42:17;1005.9;;;9.2;100.0
73316;BME280;61545;53.726;-0.444;2022-11-14T11:47:16;1005.8;;;9.2;100.0
73316;BME280;61545;53.726;-0.444;2022-11-14T11:52:17;1005.8;;;9.3;100.0
73316;BME280;61545;53.726;-0.444;2022-11-14T11:57:16;1005.8;;;9.4;100.0
73316;BME280;61545;53.726;-0.444;2022-11-14T12:02:20;1005.6;;;9.3;100.0
73316;BME280;61545;53.726;-0.444;2022-11-14T12:07:16;1005.7;;;9.3;100.0
73316;BME280;61545;53.726;-0.444;2022-11-14T12:12:17;1005.5;;;9.4;100.0
73316;BME280;61545;53.726;-0.444;2022-11-14T12:17:46;1005.5;;;9.4;100.0
73316;BME280;61545;53.726;-0.444;2022-11-14T12:22:25;1005.5;;;9.4;100.0
73316;BME280;61545;53.726;-0.444;2022-11-14T12:27:21;1005.6;;;9.4;100.0
73316;BME280;61545;53.726;-0.444;2022-11-14T12:32:17;1005.6;;;9.4;100.0
73316;BME280;61545;53.726;-0.444;2022-11-14T12:37:17;1005.4;;;9.4;100.0
73316;BME280;61545;53.726;-0.444;2022-11-14T12:42:18;1005.4;;;9.4;100.0
73316;BME280;61545;53.726;-0.444;2022-11-14T12:47:17;1005.3;;;9.4;100.0
73316;BME280;61545;53.726;-0.444;2022-11-14T12:52:41;1005.3;;;9.4;100.0
73316;BME280;61545;53.726;-0.444;2022-11-14T12:57:21;1005.2;;;9.5;100.0
73316;BME280;61545;53.726;-0.444;2022-11-14T13:02:24;1005.2;;;9.4;100.0
73316;BME280;61545;53.726;-0.444;2022-11-14T13:07:22;1005.0;;;9.5;100.0
73316;BME280;61545;53.726;-0.444;2022-11-14T13:12:25;1004.9;;;9.5;100.0
73316;BME280;61545;53.726;-0.444;2022-11-14T13:17:24;1004.8;;;9.5;100.0
73316;BME280;61545;53.726;-0.444;2022-11-14T13:22:19;1004.8;;;9.4;100.0
73316;BME280;61545;53.726;-0.444;2022-11-14T13:27:25;1004.8;;;9.5;100.0
73316;BME280;61545;53.726;-0.444;2022-11-14T13:32:52;1004.7;;;9.5;100.0
73316;BME280;61545;53.726;-0.444;2022-11-14T13:37:23;1004.4;;;9.4;100.0
73316;BME280;61545;53.726;-0.444;2022-11-14T13:42:21;1004.5;;;9.4;100.0
73316;BME280;61545;53.726;-0.444;2022-11-14T13:47:27;1004.4;;;9.5;100.0
73316;BME280;61545;53.726;-0.444;2022-11-14T13:52:15;1004.4;;;9.5;100.0
73316;BME280;61545;53.726;-0.444;2022-11-14T13:57:20;1004.3;;;9.4;100.0
73316;BME280;61545;53.726;-0.444;2022-11-14T14:02:26;1004.3;;;9.4;100.0
73316;BME280;61545;53.726;-0.444;2022-11-14T14:07:19;1004.2;;;9.5;100.0
73316;BME280;61545;53.726;-0.444;2022-11-14T14:12:26;1004.2;;;9.5;100.0
73316;BME280;61545;53.726;-0.444;2022-11-14T14:17:17;1004.1;;;9.4;100.0
73316;BME280;61545;53.726;-0.444;2022-11-14T14:22:18;1004.1;;;9.4;100.0
73316;BME280;61545;53.726;-0.444;2022-11-14T14:27:18;1004.1;;;9.4;100.0
73316;BME280;61545;53.726;-0.444;2022-11-14T14:32:16;1004.1;;;9.4;100.0
73316;BME280;61545;53.726;-0.444;2022-11-14T14:37:17;1004.2;;;9.5;100.0
73316;BME280;61545;53.726;-0.444;2022-11-14T14:42:15;1004.1;;;9.5;100.0
73316;BME280;61545;53.726;-0.444;2022-11-14T14:47:15;1004.0;;;9.4;100.0
73316;BME280;61545;53.726;-0.444;2022-11-14T14:52:18;1003.9;;;9.4;100.0
73316;BME280;61545;53.726;-0.444;2022-11-14T14:57:16;1003.8;;;9.4;100.0
73316;BME280;61545;53.726;-0.444;2022-11-14T15:02:16;1003.8;;;9.4;100.0
73316;BME280;61545;53.726;-0.444;2022-11-14T15:07:17;1003.7;;;9.4;100.0
73316;BME280;61545;53.726;-0.444;2022-11-14T15:12:15;1003.7;;;9.3;100.0
73316;BME280;61545;53.726;-0.444;2022-11-14T15:17:15;1003.5;;;9.4;100.0
73316;BME280;61545;53.726;-0.444;2022-11-14T15:22:24;1003.4;;;9.4;100.0
73316;BME280;61545;53.726;-0.444;2022-11-14T15:27:16;1003.5;;;9.3;100.0
73316;BME280;61545;53.726;-0.444;2022-11-14T15:32:16;1003.4;;;9.3;100.0
73316;BME280;61545;53.726;-0.444;2022-11-14T15:37:19;1003.3;;;9.2;100.0
73316;BME280;61545;53.726;-0.444;2022-11-14T15:42:18;1003.2;;;9.2;100.0
73316;BME280;61545;53.726;-0.444;2022-11-14T15:47:18;1003.1;;;9.3;100.0
73316;BME280;61545;53.726;-0.444;2022-11-14T15:52:18;1003.1;;;9.3;100.0
73316;BME280;61545;53.726;-0.444;2022-11-14T15:57:15;1003.0;;;9.4;100.0
73316;BME280;61545;53.726;-0.444;2022-11-14T16:02:17;1003.0;;;9.3;100.0
73316;BME280;61545;53.726;-0.444;2022-11-14T16:07:15;1003.0;;;9.3;100.0
73316;BME280;61545;53.726;-0.444;2022-11-14T16:12:16;1003.1;;;9.4;100.0
73316;BME280;61545;53.726;-0.444;2022-11-14T16:17:16;1003.1;;;9.4;100.0
73316;BME280;61545;53.726;-0.444;2022-11-14T16:22:16;1003.0;;;9.4;100.0
73316;BME280;61545;53.726;-0.444;2022-11-14T16:27:15;1003.0;;;9.3;100.0
73316;BME280;61545;53.726;-0.444;2022-11-14T16:32:15;1003.0;;;9.3;100.0
73316;BME280;61545;53.726;-0.444;2022-11-14T16:37:15;1002.9;;;9.2;100.0
73316;BME280;61545;53.726;-0.444;2022-11-14T16:42:15;1002.8;;;9.2;100.0
73316;BME280;61545;53.726;-0.444;2022-11-14T16:47:15;1002.8;;;9.4;100.0
73316;BME280;61545;53.726;-0.444;2022-11-14T16:52:15;1002.8;;;9.3;100.0
73316;BME280;61545;53.726;-0.444;2022-11-14T16:57:15;1002.7;;;9.2;100.0
73316;BME280;61545;53.726;-0.444;2022-11-14T17:02:15;1002.7;;;9.2;100.0
73316;BME280;61545;53.726;-0.444;2022-11-14T17:07:15;1002.7;;;9.3;100.0
73316;BME280;61545;53.726;-0.444;2022-11-14T17:12:15;1002.8;;;9.3;100.0
73316;BME280;61545;53.726;-0.444;2022-11-14T17:17:15;1002.8;;;9.4;100.0
73316;BME280;61545;53.726;-0.444;2022-11-14T17:22:16;1002.9;;;9.4;100.0
73316;BME280;61545;53.726;-0.444;2022-11-14T17:27:15;1002.9;;;9.3;100.0
73316;BME280;61545;53.726;-0.444;2022-11-14T17:32:15;1002.9;;;9.4;100.0
73316;BME280;61545;53.726;-0.444;2022-11-14T17:37:15;1003.0;;;9.4;100.0
73316;BME280;61545;53.726;-0.444;2022-11-14T17:42:15;1003.0;;;9.3;100.0
73316;BME280;61545;53.726;-0.444;2022-11-14T17:47:15;1003.1;;;9.4;100.0
73316;BME280;61545;53.726;-0.444;2022-11-14T17:52:15;1002.9;;;9.3;100.0
73316;BME280;61545;53.726;-0.444;2022-11-14T17:57:15;1002.8;;;9.2;100.0
73316;BME280;61545;53.726;-0.444;2022-11-14T18:02:15;1002.8;;;9.3;100.0
73316;BME280;61545;53.726;-0.444;2022-11-14T18:07:15;1002.8;;;9.3;100.0
73316;BME280;61545;53.726;-0.444;2022-11-14T18:12:15;1002.8;;;9.4;100.0
73316;BME280;61545;53.726;-0.444;2022-11-14T18:17:15;1002.7;;;9.4;100.0
73316;BME280;61545;53.726;-0.444;2022-11-14T18:22:15;1002.7;;;9.3;100.0
73316;BME280;61545;53.726;-0.444;2022-11-14T18:27:15;1002.6;;;9.4;100.0
73316;BME280;61545;53.726;-0.444;2022-11-14T18:32:15;1002.6;;;9.4;100.0
73316;BME280;61545;53.726;-0.444;2022-11-14T18:37:15;1002.6;;;9.4;100.0
73316;BME280;61545;53.726;-0.444;2022-11-14T18:42:15;1002.5;;;9.4;100.0
73316;BME280;61545;53.726;-0.444;2022-11-14T18:47:15;1002.4;;;9.4;100.0
73316;BME280;61545;53.726;-0.444;2022-11-14T18:52:15;1002.3;;;9.3;100.0
73316;BME280;61545;53.726;-0.444;2022-11-14T18:57:15;1002.3;;;9.4;100.0
73316;BME280;61545;53.726;-0.444;2022-11-14T19:02:15;1002.2;;;9.4;100.0
73316;BME280;61545;53.726;-0.444;2022-11-14T19:07:15;1002.3;;;9.4;100.0
73316;BME280;61545;53.726;-0.444;2022-11-14T19:12:15;1002.3;;;9.4;100.0
73316;BME280;61545;53.726;-0.444;2022-11-14T19:17:15;1002.3;;;9.4;100.0
73316;BME280;61545;53.726;-0.444;2022-11-14T19:22:15;1002.2;;;9.4;100.0
73316;BME280;61545;53.726;-0.444;2022-11-14T19:27:15;1002.1;;;9.3;100.0
73316;BME280;61545;53.726;-0.444;2022-11-14T19:32:15;1002.1;;;9.4;100.0
73316;BME280;61545;53.726;-0.444;2022-11-14T19:37:15;1002.0;;;9.3;100.0
73316;BME280;61545;53.726;-0.444;2022-11-14T19:42:15;1001.9;;;9.3;100.0
73316;BME280;61545;53.726;-0.444;2022-11-14T19:47:15;1001.9;;;9.3;100.0
73316;BME280;61545;53.726;-0.444;2022-11-14T19:52:15;1001.9;;;9.3;100.0
73316;BME280;61545;53.726;-0.444;2022-11-14T19:57:15;1002.0;;;9.4;100.0
73316;BME280;61545;53.726;-0.444;2022-11-14T20:02:15;1002.0;;;9.4;100.0
73316;BME280;61545;53.726;-0.444;2022-11-14T20:07:15;1001.8;;;9.4;100.0
73316;BME280;61545;53.726;-0.444;2022-11-14T20:12:15;1001.7;;;9.4;100.0
73316;BME280;61545;53.726;-0.444;2022-11-14T20:17:15;1001.7;;;9.4;100.0
73316;BME280;61545;53.726;-0.444;2022-11-14T20:22:15;1001.6;;;9.4;100.0
73316;BME280;61545;53.726;-0.444;2022-11-14T20:27:15;1001.6;;;9.4;100.0
73316;BME280;61545;53.726;-0.444;2022-11-14T20:32:15;1001.5;;;9.4;100.0
73316;BME280;61545;53.726;-0.444;2022-11-14T20:37:15;1001.4;;;9.4;100.0
73316;BME280;61545;53.726;-0.444;2022-11-14T20:42:15;1001.5;;;9.4;100.0
73316;BME280;61545;53.726;-0.444;2022-11-14T20:47:15;1001.4;;;9.4;100.0
73316;BME280;61545;53.726;-0.444;2022-11-14T20:52:15;1001.3;;;9.4;100.0
73316;BME280;61545;53.726;-0.444;2022-11-14T20:57:15;1001.2;;;9.4;100.0
73316;BME280;61545;53.726;-0.444;2022-11-14T21:02:15;1001.0;;;9.4;100.0
73316;BME280;61545;53.726;-0.444;2022-11-14T21:07:15;1000.9;;;9.4;100.0
73316;BME280;61545;53.726;-0.444;2022-11-14T21:12:15;1000.8;;;9.4;100.0
73316;BME280;61545;53.726;-0.444;2022-11-14T21:17:15;1000.7;;;9.4;100.0
73316;BME280;61545;53.726;-0.444;2022-11-14T21:22:15;1000.6;;;9.4;100.0
73316;BME280;61545;53.726;-0.444;2022-11-14T21:27:15;1000.5;;;9.4;100.0
73316;BME280;61545;53.726;-0.444;2022-11-14T21:32:16;1000.6;;;9.4;100.0
73316;BME280;61545;53.726;-0.444;2022-11-14T21:37:15;1000.6;;;9.4;100.0
73316;BME280;61545;53.726;-0.444;2022-11-14T21:42:15;1000.6;;;9.4;100.0
73316;BME280;61545;53.726;-0.444;2022-11-14T21:47:15;1000.6;;;9.4;100.0
73316;BME280;61545;53.726;-0.444;2022-11-14T21:52:15;1000.6;;;9.3;100.0
73316;BME280;61545;53.726;-0.444;2022-11-14T21:57:15;1000.6;;;9.4;100.0
73316;BME280;61545;53.726;-0.444;2022-11-14T22:02:15;1000.6;;;9.3;100.0
73316;BME280;61545;53.726;-0.444;2022-11-14T22:07:15;1000.6;;;9.4;100.0
73316;BME280;61545;53.726;-0.444;2022-11-14T22:12:15;1000.6;;;9.4;100.0
73316;BME280;61545;53.726;-0.444;2022-11-14T22:17:15;1000.5;;;9.2;100.0
73316;BME280;61545;53.726;-0.444;2022-11-14T22:22:15;1000.3;;;9.3;100.0
73316;BME280;61545;53.726;-0.444;2022-11-14T22:27:15;1000.2;;;9.2;100.0
73316;BME280;61545;53.726;-0.444;2022-11-14T22:32:15;1000.2;;;9.2;100.0
73316;BME280;61545;53.726;-0.444;2022-11-14T22:37:15;1000.3;;;9.2;100.0
73316;BME280;61545;53.726;-0.444;2022-11-14T22:42:15;1000.2;;;9.2;100.0
73316;BME280;61545;53.726;-0.444;2022-11-14T22:47:15;1000.0;;;9.2;100.0
73316;BME280;61545;53.726;-0.444;2022-11-14T22:52:15;1000.0;;;9.2;100.0
73316;BME280;61545;53.726;-0.444;2022-11-14T22:57:15;999.9;;;9.2;100.0
73316;BME280;61545;53.726;-0.444;2022-11-14T23:02:15;999.9;;;9.2;100.0
73316;BME280;61545;53.726;-0.444;2022-11-14T23:07:15;999.9;;;9.4;100.0
73316;BME280;61545;53.726;-0.444;2022-11-14T23:12:15;999.8;;;9.4;100.0
73316;BME280;61545;53.726;-0.444;2022-11-14T23:17:15;999.7;;;9.2;100.0
73316;BME280;61545;53.726;-0.444;2022-11-14T23:22:15;999.6;;;9.2;100.0
73316;BME280;61545;53.726;-0.444;2022-11-14T23:27:15;999.5;;;9.2;100.0
73316;BME280;61545;53.726;-0.444;2022-11-14T23:32:15;999.5;;;9.3;100.0
73316;BME280;61545;53.726;-0.444;2022-11-14T23:37:15;999.4;;;9.3;100.0
73316;BME280;61545;53.726;-0.444;2022-11-14T23:42:15;999.3;;;9.3;100.0
73316;BME280;61545;53.726;-0.444;2022-11-14T23:47:15;999.2;;;9.3;100.0
73316;BME280;61545;53.726;-0.444;2022-11-14T23:52:15;999.2;;;9.3;100.0
73316;BME280;61545;53.726;-0.444;2022-11-14T23:57:15;999.2;;;9.3;100.0
